PAMD METAR and TAF weather

Enter ICAO airport designator
Station Type Date Time Source
PAMD METAR 2020/09/20 13:51 UTC NOAA

PAMD 201351Z AUTO 08012KT 10SM FEW025 BKN046 OVC055 11/09 A2976 RMK AO2 RAB20E31 SLP065 P0000 T01060089


Station Type Date Time Source
PAMD Decoded METAR 2020/09/20 13:51 UTC NOAA

Middleton Island, Middleton Island Airport, AK, United States (PAMD) 59-26N 146-18W 14M
Sep 20, 2020 - 09:51 AM EDT / 2020.09.20 1351 UTC
Wind: from the E (080 degrees) at 14 MPH (12 KT):0
Visibility: 10 mile(s):0
Sky conditions: overcast
Precipitation last hour: A trace
Temperature: 51.1 F (10.6 C)
Dew Point: 48.0 F (8.9 C)
Relative Humidity: 89%
Pressure (altimeter): 29.76 in. Hg (1007 hPa)
ob: PAMD 201351Z AUTO 08012KT 10SM FEW025 BKN046 OVC055 11/09 A2976 RMK AO2 RAB20E31 SLP065 P0000 T01060089
cycle: 14

Station Type Date Time Source
PAMD TAF UTC NOAA

Error!

Example: see airport list